createdAt,value
2023-08-31T00:00:12.706Z,66.58
2023-08-31T00:02:41.636Z,66.54
2023-08-31T00:05:08.931Z,66.45
2023-08-31T00:07:36.146Z,66.68
2023-08-31T00:10:10.149Z,66.48
2023-08-31T00:12:37.902Z,66.42
2023-08-31T00:15:05.858Z,66.15
2023-08-31T00:17:33.859Z,66.21
2023-08-31T00:20:01.160Z,66.44
2023-08-31T00:22:29.547Z,66.48
2023-08-31T00:24:56.726Z,66.30
2023-08-31T00:27:23.916Z,66.35
2023-08-31T00:29:51.902Z,66.22
2023-08-31T00:32:19.546Z,66.13
2023-08-31T00:34:46.846Z,66.49
2023-08-31T00:37:14.827Z,66.84
2023-08-31T00:39:42.077Z,66.73
2023-08-31T00:42:09.294Z,66.62
2023-08-31T00:44:36.524Z,66.71
2023-08-31T00:47:04.035Z,66.86
2023-08-31T00:49:31.407Z,66.63
2023-08-31T00:52:00.001Z,66.87
2023-08-31T00:54:28.117Z,66.66
2023-08-31T00:56:55.966Z,67.01
2023-08-31T00:59:23.204Z,66.82
2023-08-31T01:01:57.834Z,66.95
2023-08-31T01:04:49.359Z,67.20
2023-08-31T01:07:43.141Z,67.13
2023-08-31T01:10:16.899Z,67.43
2023-08-31T01:12:53.520Z,67.44
2023-08-31T01:15:21.387Z,67.40
2023-08-31T01:17:56.338Z,67.30
2023-08-31T01:20:43.651Z,67.16
2023-08-31T01:23:17.658Z,67.30
2023-08-31T01:25:44.894Z,67.19
2023-08-31T01:28:13.140Z,67.21
2023-08-31T01:30:40.337Z,67.05
2023-08-31T01:33:07.635Z,67.17
2023-08-31T01:35:51.023Z,67.02
2023-08-31T01:38:22.507Z,66.81
2023-08-31T01:41:01.013Z,66.72
2023-08-31T01:43:29.383Z,66.59
2023-08-31T01:45:56.742Z,66.83
2023-08-31T01:48:23.969Z,66.40
2023-08-31T01:50:51.150Z,66.79
2023-08-31T01:53:18.375Z,66.73
2023-08-31T01:55:45.552Z,66.66
2023-08-31T01:58:12.719Z,66.48
2023-08-31T02:00:39.913Z,66.44
2023-08-31T02:03:07.572Z,66.19
2023-08-31T02:05:34.956Z,66.22
2023-08-31T02:08:02.487Z,66.26
2023-08-31T02:10:30.787Z,66.12
2023-08-31T02:12:58.355Z,66.42
2023-08-31T02:15:25.648Z,66.10
2023-08-31T02:17:55.299Z,66.18
2023-08-31T02:20:22.626Z,66.18
2023-08-31T02:22:50.393Z,66.40
2023-08-31T02:25:17.824Z,66.54
2023-08-31T02:27:45.041Z,66.36
2023-08-31T02:30:12.318Z,66.51
2023-08-31T02:32:39.762Z,66.56
2023-08-31T02:35:08.126Z,66.75
2023-08-31T02:37:35.353Z,66.35
2023-08-31T02:40:02.545Z,66.47
2023-08-31T02:42:29.723Z,66.56
2023-08-31T02:44:57.115Z,66.74
2023-08-31T02:47:24.343Z,66.56
2023-08-31T02:49:51.579Z,66.55
2023-08-31T02:52:18.848Z,66.59
2023-08-31T02:54:46.135Z,66.55
2023-08-31T02:57:20.404Z,66.46
2023-08-31T02:59:51.342Z,66.46
2023-08-31T03:02:18.968Z,66.43
2023-08-31T03:04:46.244Z,66.21
2023-08-31T03:07:14.983Z,66.38
2023-08-31T03:09:42.220Z,66.33
2023-08-31T03:12:09.456Z,66.45
2023-08-31T03:14:36.680Z,66.62
2023-08-31T03:17:04.340Z,66.34
2023-08-31T03:19:31.552Z,66.50
2023-08-31T03:21:58.743Z,66.36
2023-08-31T03:24:25.937Z,66.32
2023-08-31T03:26:53.178Z,66.21
2023-08-31T03:29:20.753Z,66.21
2023-08-31T03:31:48.015Z,66.44
2023-08-31T03:34:15.228Z,66.24
2023-08-31T03:36:42.626Z,66.47
2023-08-31T03:39:10.724Z,66.44
2023-08-31T03:41:37.899Z,66.31
2023-08-31T03:44:05.221Z,66.62
2023-08-31T03:46:32.966Z,66.27
2023-08-31T03:49:00.228Z,66.22
2023-08-31T03:51:27.428Z,66.47
2023-08-31T03:53:56.087Z,66.19
2023-08-31T03:56:23.527Z,66.44
2023-08-31T03:58:50.979Z,66.29
2023-08-31T04:01:18.854Z,66.41
2023-08-31T04:03:46.440Z,66.38
2023-08-31T04:06:13.656Z,66.59
2023-08-31T04:08:40.837Z,66.30
2023-08-31T04:11:08.104Z,66.55
2023-08-31T04:13:35.274Z,66.87
2023-08-31T04:16:02.887Z,66.64
2023-08-31T04:18:30.169Z,66.82
2023-08-31T04:21:00.073Z,66.64
2023-08-31T04:23:27.345Z,66.42
2023-08-31T04:25:54.659Z,66.89
2023-08-31T04:28:21.852Z,66.78
2023-08-31T04:30:50.269Z,66.77
2023-08-31T04:33:18.281Z,66.80
2023-08-31T04:35:45.501Z,66.62
2023-08-31T04:38:12.705Z,66.84
2023-08-31T04:40:39.968Z,66.41
2023-08-31T04:43:07.185Z,66.48
2023-08-31T04:45:34.499Z,66.33
2023-08-31T04:48:01.759Z,66.43
2023-08-31T04:50:28.971Z,66.44
2023-08-31T04:52:56.248Z,66.42
2023-08-31T04:55:23.839Z,66.37
2023-08-31T04:57:51.082Z,66.38
2023-08-31T05:00:18.624Z,66.62
2023-08-31T05:02:45.954Z,66.54
2023-08-31T05:05:14.166Z,66.85
2023-08-31T05:07:41.359Z,67.02
2023-08-31T05:10:09.190Z,66.85
2023-08-31T05:12:36.382Z,66.95
2023-08-31T05:15:03.907Z,67.64
2023-08-31T05:17:32.082Z,68.31
2023-08-31T05:19:59.408Z,68.92
2023-08-31T05:22:26.638Z,70.02
2023-08-31T05:24:53.881Z,70.05
2023-08-31T05:27:21.074Z,69.98
2023-08-31T05:29:48.296Z,69.45
2023-08-31T05:32:15.502Z,69.33
2023-08-31T05:34:42.698Z,68.99
2023-08-31T05:37:09.936Z,68.74
2023-08-31T05:39:37.206Z,68.19
2023-08-31T05:42:04.508Z,68.04
2023-08-31T05:44:31.718Z,67.74
2023-08-31T05:46:58.939Z,67.74
2023-08-31T05:49:26.144Z,67.25
2023-08-31T05:51:53.372Z,66.57
2023-08-31T05:54:20.566Z,66.44
2023-08-31T05:56:49.000Z,66.37
2023-08-31T05:59:16.288Z,65.90
2023-08-31T06:01:45.434Z,66.52
2023-08-31T06:04:12.794Z,66.90
2023-08-31T06:06:40.164Z,67.08
2023-08-31T06:09:08.161Z,67.03
2023-08-31T06:11:36.208Z,67.13
2023-08-31T06:14:04.561Z,67.04
2023-08-31T06:16:31.829Z,67.14
2023-08-31T06:18:59.070Z,66.86
2023-08-31T06:21:26.275Z,67.26
2023-08-31T06:23:53.505Z,67.87
2023-08-31T06:26:21.934Z,67.51
2023-08-31T06:28:49.123Z,67.91
2023-08-31T06:31:16.352Z,67.45
2023-08-31T06:33:43.868Z,67.01
2023-08-31T06:36:11.286Z,66.23
2023-08-31T06:38:38.568Z,65.24
2023-08-31T06:41:05.921Z,65.68
2023-08-31T06:43:33.395Z,65.80
2023-08-31T06:46:10.806Z,65.61
2023-08-31T06:48:47.846Z,65.07
2023-08-31T06:51:15.149Z,65.03
2023-08-31T06:53:45.692Z,64.96
2023-08-31T06:56:13.015Z,64.78
2023-08-31T06:58:40.272Z,65.14
2023-08-31T07:01:07.902Z,64.79
2023-08-31T07:03:35.334Z,64.87
2023-08-31T07:06:03.860Z,65.36
2023-08-31T07:08:31.834Z,64.71
2023-08-31T07:10:59.191Z,64.47
2023-08-31T07:13:26.380Z,63.94
2023-08-31T07:15:53.706Z,63.47
2023-08-31T07:18:20.991Z,63.27
2023-08-31T07:20:48.377Z,63.47
2023-08-31T07:23:15.656Z,63.12
2023-08-31T07:25:43.616Z,60.29
2023-08-31T07:28:11.729Z,59.10
2023-08-31T07:30:39.075Z,55.53
2023-08-31T07:33:24.280Z,53.52
2023-08-31T07:35:54.154Z,58.03
2023-08-31T07:38:21.909Z,59.83
2023-08-31T07:40:49.195Z,50.07
2023-08-31T07:43:16.805Z,53.92
2023-08-31T07:45:44.080Z,58.29
2023-08-31T07:48:11.336Z,55.91
2023-08-31T07:50:38.647Z,58.21
2023-08-31T07:53:05.876Z,60.00
2023-08-31T07:55:33.181Z,60.07
2023-08-31T07:58:02.219Z,57.25
2023-08-31T08:00:29.477Z,47.81
2023-08-31T08:02:56.797Z,44.87
2023-08-31T08:05:24.102Z,43.28
2023-08-31T08:07:51.305Z,49.06
2023-08-31T08:10:18.552Z,55.47
2023-08-31T08:12:46.451Z,57.58
2023-08-31T08:15:14.242Z,57.98
2023-08-31T08:17:41.499Z,53.52
2023-08-31T08:20:10.210Z,46.13
2023-08-31T08:22:37.453Z,45.83
2023-08-31T08:25:05.038Z,53.42
2023-08-31T08:27:34.077Z,57.05
2023-08-31T08:30:01.276Z,57.83
2023-08-31T08:32:28.625Z,57.64
2023-08-31T08:34:55.939Z,57.06
2023-08-31T08:37:23.148Z,57.57
2023-08-31T08:39:52.538Z,57.75
2023-08-31T08:42:21.159Z,58.12
2023-08-31T08:44:48.510Z,57.91
2023-08-31T08:47:16.104Z,57.25
2023-08-31T08:49:44.766Z,56.83
2023-08-31T08:52:12.425Z,56.76
2023-08-31T08:54:42.827Z,56.27
2023-08-31T08:57:10.150Z,55.92
2023-08-31T08:59:37.446Z,56.34
2023-08-31T09:02:04.808Z,55.59
2023-08-31T09:04:33.167Z,56.03
2023-08-31T09:07:00.445Z,55.94
2023-08-31T09:09:27.652Z,55.63
2023-08-31T09:11:56.781Z,55.30
2023-08-31T09:14:24.086Z,54.72
2023-08-31T09:16:52.632Z,54.39
2023-08-31T09:19:24.551Z,54.40
2023-08-31T09:21:53.350Z,54.23
2023-08-31T09:24:20.573Z,53.94
2023-08-31T09:26:53.612Z,54.06
2023-08-31T09:29:20.998Z,53.97
2023-08-31T09:31:48.619Z,53.68
2023-08-31T09:34:16.521Z,53.70
2023-08-31T09:36:44.164Z,53.49
2023-08-31T09:39:12.422Z,53.30
2023-08-31T09:41:55.680Z,53.19
2023-08-31T09:44:23.279Z,53.64
2023-08-31T09:46:50.575Z,53.36
2023-08-31T09:49:18.609Z,53.04
2023-08-31T09:51:50.847Z,53.22
2023-08-31T09:54:23.960Z,53.26
2023-08-31T09:56:51.297Z,53.02
2023-08-31T09:59:18.779Z,53.28
2023-08-31T10:01:48.943Z,52.96
2023-08-31T10:04:16.791Z,52.85
2023-08-31T10:06:44.641Z,52.78
2023-08-31T10:09:12.631Z,53.37
2023-08-31T10:11:41.239Z,53.97
2023-08-31T10:14:10.204Z,54.88
2023-08-31T10:16:40.831Z,56.01
2023-08-31T10:19:09.154Z,57.30
2023-08-31T10:21:36.462Z,57.39
2023-08-31T10:24:04.566Z,57.88
2023-08-31T10:26:32.383Z,58.58
2023-08-31T10:29:00.588Z,58.75
2023-08-31T10:31:34.972Z,58.12
2023-08-31T10:34:11.224Z,59.02
2023-08-31T10:36:51.275Z,59.56
2023-08-31T10:39:25.485Z,59.59
2023-08-31T10:42:02.304Z,60.52
2023-08-31T10:44:32.212Z,60.24
2023-08-31T10:47:05.433Z,59.60
2023-08-31T10:49:38.018Z,59.80
2023-08-31T10:54:56.488Z,59.44
2023-08-31T10:57:32.103Z,59.52
2023-08-31T10:59:59.914Z,59.38
2023-08-31T11:02:32.937Z,59.68
2023-08-31T11:05:13.234Z,59.28
2023-08-31T11:07:42.004Z,58.97
2023-08-31T11:10:20.585Z,58.62
2023-08-31T11:12:49.855Z,59.01
2023-08-31T11:15:20.042Z,58.65
2023-08-31T11:17:48.013Z,58.37
2023-08-31T11:20:17.952Z,57.98
2023-08-31T11:22:56.810Z,58.64
2023-08-31T11:25:25.552Z,58.63
2023-08-31T11:27:56.792Z,57.15
2023-08-31T11:30:24.744Z,56.60
2023-08-31T11:32:53.041Z,56.31
2023-08-31T11:35:21.692Z,56.28
2023-08-31T11:37:52.719Z,55.91
2023-08-31T11:40:20.438Z,55.61
2023-08-31T11:42:48.902Z,56.04
2023-08-31T11:45:16.346Z,56.47
2023-08-31T11:47:45.281Z,56.65
2023-08-31T11:50:12.740Z,56.13
2023-08-31T11:52:40.489Z,55.79
2023-08-31T11:55:20.350Z,56.07
2023-08-31T11:57:52.135Z,55.97
2023-08-31T12:00:21.899Z,56.17
2023-08-31T12:02:59.690Z,56.11
2023-08-31T12:05:28.080Z,56.21
2023-08-31T12:07:56.074Z,55.47
2023-08-31T12:10:24.985Z,56.34
2023-08-31T12:13:08.643Z,56.26
2023-08-31T12:15:36.215Z,56.64
2023-08-31T12:18:13.788Z,56.38
2023-08-31T12:20:48.374Z,56.35
2023-08-31T12:23:18.998Z,56.58
2023-08-31T12:25:53.739Z,56.39
2023-08-31T12:28:22.418Z,56.12
2023-08-31T12:30:54.408Z,56.32
2023-08-31T12:33:22.647Z,55.91
2023-08-31T12:35:50.592Z,55.79
2023-08-31T12:38:18.959Z,55.80
2023-08-31T12:40:46.214Z,55.57
2023-08-31T12:43:13.678Z,56.25
2023-08-31T12:45:41.660Z,56.56
2023-08-31T12:48:09.237Z,56.42
2023-08-31T12:50:36.517Z,57.54
2023-08-31T12:53:04.450Z,58.20
2023-08-31T12:55:31.823Z,57.13
2023-08-31T12:57:59.156Z,57.48
2023-08-31T13:00:26.435Z,57.70
2023-08-31T13:02:53.778Z,58.32
2023-08-31T13:05:21.698Z,58.57
2023-08-31T13:07:48.970Z,59.10
2023-08-31T13:10:16.353Z,58.96
2023-08-31T13:12:43.554Z,58.21
2023-08-31T13:15:11.224Z,58.78
2023-08-31T13:17:38.575Z,58.56
2023-08-31T13:20:06.387Z,58.85
2023-08-31T13:22:33.672Z,54.69
2023-08-31T13:25:01.047Z,55.75
2023-08-31T13:27:28.301Z,55.13
2023-08-31T13:29:55.484Z,56.17
2023-08-31T13:32:22.718Z,56.66
2023-08-31T13:34:49.892Z,57.03
2023-08-31T13:37:17.122Z,57.36
2023-08-31T13:39:44.362Z,58.38
2023-08-31T13:42:11.552Z,58.39
2023-08-31T13:44:38.757Z,58.32
2023-08-31T13:47:07.189Z,59.17
2023-08-31T13:49:34.416Z,59.49
2023-08-31T13:52:01.973Z,59.29
2023-08-31T13:54:29.236Z,58.81
2023-08-31T13:56:56.593Z,58.88
2023-08-31T13:59:23.822Z,58.94
2023-08-31T14:01:52.403Z,58.41
2023-08-31T14:04:19.752Z,58.26
2023-08-31T14:06:47.117Z,57.61
2023-08-31T14:09:14.305Z,57.48
2023-08-31T14:11:41.554Z,56.99
2023-08-31T14:14:12.255Z,57.19
2023-08-31T14:16:40.104Z,57.04
2023-08-31T14:19:07.386Z,57.18
2023-08-31T14:21:34.654Z,57.21
2023-08-31T14:24:01.874Z,56.87
2023-08-31T14:26:29.071Z,57.39
2023-08-31T14:28:56.296Z,57.61
2023-08-31T14:31:23.529Z,57.91
2023-08-31T14:33:51.286Z,58.03
2023-08-31T14:36:18.757Z,58.32
2023-08-31T14:38:46.950Z,57.95
2023-08-31T14:41:14.328Z,56.94
2023-08-31T14:43:41.554Z,55.64
2023-08-31T14:46:08.977Z,55.27
2023-08-31T14:48:36.337Z,55.75
2023-08-31T14:51:03.650Z,55.83
2023-08-31T14:53:31.071Z,55.91
2023-08-31T14:55:58.352Z,55.64
2023-08-31T14:58:25.716Z,55.07
2023-08-31T15:00:56.213Z,55.21
2023-08-31T15:03:25.066Z,56.46
2023-08-31T15:05:52.374Z,55.76
2023-08-31T15:08:22.809Z,55.13
2023-08-31T15:10:50.099Z,56.10
2023-08-31T15:13:17.370Z,56.16
2023-08-31T15:15:46.252Z,56.48
2023-08-31T15:18:13.748Z,56.56
2023-08-31T15:20:43.403Z,55.92
2023-08-31T15:23:10.777Z,55.63
2023-08-31T15:25:39.095Z,55.63
2023-08-31T15:28:08.010Z,55.10
2023-08-31T15:30:35.364Z,55.00
2023-08-31T15:33:06.394Z,54.70
2023-08-31T15:35:34.043Z,54.30
2023-08-31T15:38:01.438Z,53.93
2023-08-31T15:40:28.652Z,53.39
2023-08-31T15:42:56.046Z,53.13
2023-08-31T15:45:26.230Z,51.97
2023-08-31T15:47:53.605Z,51.51
2023-08-31T15:50:20.903Z,50.96
2023-08-31T15:52:49.950Z,51.32
2023-08-31T15:55:18.341Z,51.47
2023-08-31T15:57:45.630Z,51.82
2023-08-31T16:00:13.107Z,52.08
2023-08-31T16:02:40.978Z,52.10
2023-08-31T16:05:08.808Z,52.03
2023-08-31T16:07:38.836Z,52.21
2023-08-31T16:10:06.688Z,51.71
2023-08-31T16:12:33.885Z,51.76
2023-08-31T16:15:01.595Z,51.89
2023-08-31T16:17:28.925Z,51.39
2023-08-31T16:19:57.000Z,51.45
2023-08-31T16:22:24.297Z,51.38
2023-08-31T16:24:51.643Z,51.70
2023-08-31T16:27:18.880Z,51.95
2023-08-31T16:29:51.640Z,52.55
2023-08-31T16:32:20.782Z,52.53
2023-08-31T16:34:49.957Z,52.89
2023-08-31T16:37:17.167Z,53.79
2023-08-31T16:39:44.367Z,54.60
2023-08-31T16:42:12.575Z,55.48
2023-08-31T16:44:39.840Z,56.46
2023-08-31T16:47:07.176Z,57.28
2023-08-31T16:49:34.399Z,57.82
2023-08-31T16:52:01.922Z,58.03
2023-08-31T16:54:29.229Z,58.92
2023-08-31T16:56:56.577Z,59.17
2023-08-31T16:59:24.241Z,58.22
2023-08-31T17:01:51.487Z,57.80
2023-08-31T17:04:18.754Z,57.22
2023-08-31T17:06:46.080Z,57.23
2023-08-31T17:09:13.315Z,57.11
2023-08-31T17:11:40.616Z,57.24
2023-08-31T17:14:08.608Z,57.29
2023-08-31T17:16:37.045Z,57.67
2023-08-31T17:19:04.538Z,57.88
2023-08-31T17:21:31.838Z,57.71
2023-08-31T17:23:59.058Z,58.22
2023-08-31T17:26:26.960Z,58.20
2023-08-31T17:28:54.529Z,58.18
2023-08-31T17:31:21.734Z,57.97
2023-08-31T17:33:49.262Z,57.93
2023-08-31T17:36:18.995Z,58.43
2023-08-31T17:38:46.953Z,58.58
2023-08-31T17:41:14.516Z,59.04
2023-08-31T17:43:41.767Z,59.45
2023-08-31T17:46:09.853Z,59.96
2023-08-31T17:48:38.180Z,59.81
2023-08-31T17:51:05.589Z,60.15
2023-08-31T17:53:32.967Z,60.47
2023-08-31T17:56:00.494Z,60.61
2023-08-31T17:58:28.291Z,61.08
2023-08-31T18:00:57.982Z,60.80
2023-08-31T18:03:25.734Z,60.69
2023-08-31T18:05:55.956Z,60.75
2023-08-31T18:08:25.386Z,61.13
2023-08-31T18:10:53.924Z,61.28
2023-08-31T18:13:21.516Z,61.45
2023-08-31T18:15:52.896Z,61.56
2023-08-31T18:18:21.149Z,61.39
2023-08-31T18:20:48.609Z,61.20
2023-08-31T18:23:15.933Z,61.56
2023-08-31T18:25:48.201Z,61.15
2023-08-31T18:28:15.796Z,61.33
2023-08-31T18:30:52.215Z,61.46
2023-08-31T18:33:21.201Z,61.87
2023-08-31T18:35:52.466Z,61.57
2023-08-31T18:38:20.926Z,61.57
2023-08-31T18:40:50.767Z,61.71
2023-08-31T18:43:19.433Z,62.03
2023-08-31T18:45:47.648Z,61.98
2023-08-31T18:48:16.340Z,61.99
2023-08-31T18:50:46.736Z,62.01
2023-08-31T18:53:14.498Z,61.90
2023-08-31T18:55:42.080Z,61.90
2023-08-31T18:58:11.721Z,62.46
2023-08-31T19:00:39.557Z,61.88
2023-08-31T19:03:06.935Z,61.61
2023-08-31T19:05:35.222Z,61.22
2023-08-31T19:08:02.488Z,61.10
2023-08-31T19:10:30.812Z,61.00
2023-08-31T19:12:58.011Z,61.08
2023-08-31T19:15:25.525Z,61.17
2023-08-31T19:17:54.017Z,61.14
2023-08-31T19:20:21.205Z,61.23
2023-08-31T19:22:48.475Z,61.30
2023-08-31T19:25:20.000Z,61.24
2023-08-31T19:27:49.606Z,61.31
2023-08-31T19:30:19.766Z,61.21
2023-08-31T19:32:47.666Z,61.27
2023-08-31T19:35:43.159Z,61.33
2023-08-31T19:38:02.498Z,61.35
2023-08-31T19:40:29.794Z,61.31
2023-08-31T19:42:56.997Z,61.35
2023-08-31T19:45:24.547Z,61.18
2023-08-31T19:47:54.437Z,61.21
2023-08-31T19:50:23.730Z,61.19
2023-08-31T19:52:51.596Z,61.44
2023-08-31T19:55:19.149Z,61.42
2023-08-31T19:57:46.689Z,61.50
2023-08-31T20:00:15.565Z,61.92
2023-08-31T20:02:42.836Z,61.65
2023-08-31T20:05:10.130Z,62.20
2023-08-31T20:07:37.746Z,62.32
2023-08-31T20:10:05.105Z,62.20
2023-08-31T20:12:32.366Z,62.74
2023-08-31T20:14:59.560Z,62.59
2023-08-31T20:17:28.889Z,63.12
2023-08-31T20:19:59.666Z,63.00
2023-08-31T20:22:27.262Z,63.42
2023-08-31T20:24:54.483Z,62.99
2023-08-31T20:27:21.683Z,62.35
2023-08-31T20:29:48.962Z,62.38
2023-08-31T20:32:16.383Z,62.43
2023-08-31T20:34:47.533Z,62.65
2023-08-31T20:37:14.760Z,62.89
2023-08-31T20:39:45.057Z,62.64
2023-08-31T20:42:15.239Z,62.50
2023-08-31T20:44:42.477Z,62.24
2023-08-31T20:47:10.049Z,61.93
2023-08-31T20:49:37.745Z,61.85
2023-08-31T20:52:05.131Z,62.28
2023-08-31T20:54:32.326Z,62.01
2023-08-31T20:56:59.500Z,62.32
2023-08-31T20:59:28.153Z,62.30
2023-08-31T21:01:56.676Z,61.92
2023-08-31T21:04:24.189Z,61.60
2023-08-31T21:06:51.410Z,61.42
2023-08-31T21:09:18.714Z,61.50
2023-08-31T21:11:46.170Z,61.51
2023-08-31T21:14:13.429Z,61.88
2023-08-31T21:16:40.790Z,61.78
2023-08-31T21:19:08.615Z,61.61
2023-08-31T21:21:35.970Z,61.60
2023-08-31T21:24:03.231Z,61.75
2023-08-31T21:26:30.488Z,62.90
2023-08-31T21:28:57.677Z,62.86
2023-08-31T21:31:24.940Z,62.70
2023-08-31T21:33:52.422Z,62.70
2023-08-31T21:36:19.837Z,62.95
2023-08-31T21:38:47.046Z,62.98
2023-08-31T21:41:14.264Z,63.32
2023-08-31T21:43:42.619Z,63.71
2023-08-31T21:46:09.849Z,64.11
2023-08-31T21:48:37.147Z,64.81
2023-08-31T21:51:04.506Z,64.46
2023-08-31T21:53:31.707Z,64.13
2023-08-31T21:56:04.225Z,63.50
2023-08-31T21:58:32.351Z,63.54
2023-08-31T22:00:59.552Z,64.24
2023-08-31T22:03:26.932Z,64.31
2023-08-31T22:05:54.230Z,64.08
2023-08-31T22:08:21.723Z,64.27
2023-08-31T22:10:49.180Z,64.09
2023-08-31T22:13:16.385Z,63.83
2023-08-31T22:15:45.909Z,63.97
2023-08-31T22:18:13.355Z,63.99
2023-08-31T22:20:40.783Z,63.75
2023-08-31T22:23:07.962Z,63.58
2023-08-31T22:25:35.238Z,63.43
2023-08-31T22:28:03.957Z,63.18
2023-08-31T22:30:31.166Z,63.17
2023-08-31T22:32:58.421Z,63.21
2023-08-31T22:35:25.884Z,63.34
2023-08-31T22:37:53.499Z,63.56
2023-08-31T22:40:20.868Z,63.70
2023-08-31T22:42:48.312Z,63.67
2023-08-31T22:45:15.540Z,63.44
2023-08-31T22:47:43.975Z,63.58
2023-08-31T22:50:11.398Z,63.27
2023-08-31T22:52:38.985Z,63.24
2023-08-31T22:55:06.949Z,62.90
2023-08-31T22:57:35.807Z,62.89
2023-08-31T23:00:05.997Z,63.35
2023-08-31T23:02:33.201Z,63.26
2023-08-31T23:05:00.423Z,63.87
2023-08-31T23:07:28.187Z,63.40
2023-08-31T23:09:55.348Z,63.25
2023-08-31T23:12:23.547Z,63.12
2023-08-31T23:14:50.770Z,62.72
2023-08-31T23:17:17.980Z,62.64
2023-08-31T23:19:45.200Z,62.69
2023-08-31T23:22:12.362Z,62.54
2023-08-31T23:24:39.542Z,62.73
2023-08-31T23:27:06.718Z,62.33
2023-08-31T23:29:34.016Z,62.26
2023-08-31T23:32:01.213Z,62.28
2023-08-31T23:34:28.418Z,62.37
2023-08-31T23:36:55.596Z,62.35
2023-08-31T23:39:23.021Z,62.10
2023-08-31T23:41:50.523Z,62.17
2023-08-31T23:44:17.696Z,62.08
2023-08-31T23:46:44.892Z,61.96
2023-08-31T23:49:12.153Z,62.07
2023-08-31T23:51:39.334Z,61.98
2023-08-31T23:54:06.663Z,62.03
2023-08-31T23:56:34.088Z,62.03
2023-08-31T23:59:01.294Z,61.90
